createdAt,value
2023-03-17T00:00:49.199Z,22.66
2023-03-17T00:04:49.373Z,22.68
2023-03-17T00:08:49.567Z,22.69
2023-03-17T00:12:49.693Z,22.69
2023-03-17T00:16:49.985Z,22.73
2023-03-17T00:20:50.054Z,22.75
2023-03-17T00:24:50.234Z,22.71
2023-03-17T00:28:50.405Z,22.71
2023-03-17T00:32:50.644Z,22.71
2023-03-17T00:36:50.859Z,22.71
2023-03-17T00:40:50.960Z,22.73
2023-03-17T00:44:51.102Z,22.72
2023-03-17T00:48:51.284Z,22.71
2023-03-17T00:52:51.482Z,22.70
2023-03-17T00:56:51.626Z,22.67
2023-03-17T01:00:52.418Z,22.68
2023-03-17T01:04:59.830Z,22.68
2023-03-17T01:08:52.923Z,22.67
2023-03-17T01:12:51.861Z,22.69
2023-03-17T01:16:52.043Z,22.67
2023-03-17T01:20:52.134Z,22.68
2023-03-17T01:24:52.264Z,22.69
2023-03-17T01:28:52.443Z,22.66
2023-03-17T01:32:52.667Z,22.67
2023-03-17T01:36:52.828Z,22.69
2023-03-17T01:40:53.028Z,22.69
2023-03-17T01:44:53.250Z,22.69
2023-03-17T01:48:53.457Z,22.70
2023-03-17T01:52:54.358Z,22.66
2023-03-17T01:56:53.826Z,22.64
2023-03-17T02:00:53.988Z,22.62
2023-03-17T02:04:54.133Z,22.61
2023-03-17T02:08:54.339Z,22.59
2023-03-17T02:12:54.520Z,22.56
2023-03-17T02:16:54.784Z,22.51
2023-03-17T02:20:54.935Z,22.51
2023-03-17T02:24:55.120Z,22.48
2023-03-17T02:28:55.287Z,22.47
2023-03-17T02:32:55.532Z,22.47
2023-03-17T02:36:55.713Z,22.43
2023-03-17T02:40:55.886Z,22.44
2023-03-17T02:44:56.114Z,22.43
2023-03-17T02:48:56.395Z,22.42
2023-03-17T02:52:56.452Z,22.39
2023-03-17T02:56:56.644Z,22.40
2023-03-17T03:00:56.858Z,22.41
2023-03-17T03:04:57.089Z,22.41
2023-03-17T03:08:57.308Z,22.45
2023-03-17T03:12:57.487Z,22.46
2023-03-17T03:16:57.661Z,22.47
2023-03-17T03:20:57.851Z,22.45
2023-03-17T03:24:58.081Z,22.45
2023-03-17T03:28:58.292Z,22.43
2023-03-17T03:32:58.511Z,22.43
2023-03-17T03:36:58.676Z,22.44
2023-03-17T03:40:58.864Z,22.45
2023-03-17T03:44:59.076Z,22.51
2023-03-17T03:48:59.150Z,22.53
2023-03-17T03:52:59.345Z,22.54
2023-03-17T03:56:59.469Z,22.56
2023-03-17T04:00:59.641Z,22.55
2023-03-17T04:04:59.901Z,22.55
2023-03-17T04:09:00.051Z,22.53
2023-03-17T04:13:00.203Z,22.54
2023-03-17T04:17:00.383Z,22.54
2023-03-17T04:21:00.657Z,22.52
2023-03-17T04:25:00.803Z,22.53
2023-03-17T04:29:01.077Z,22.53
2023-03-17T04:33:01.233Z,22.54
2023-03-17T04:37:01.296Z,22.55
2023-03-17T04:41:01.446Z,22.52
2023-03-17T04:45:01.530Z,22.54
2023-03-17T04:49:01.690Z,22.53
2023-03-17T04:53:01.863Z,22.51
2023-03-17T04:57:02.004Z,22.48
2023-03-17T05:01:02.324Z,22.51
2023-03-17T05:05:02.365Z,22.54
2023-03-17T05:09:02.536Z,22.57
2023-03-17T05:13:02.725Z,22.56
2023-03-17T05:17:02.781Z,22.59
2023-03-17T05:21:02.955Z,22.59
2023-03-17T05:25:03.079Z,22.58
2023-03-17T05:29:03.254Z,22.61
2023-03-17T05:33:03.470Z,22.60
2023-03-17T05:37:03.512Z,22.60
2023-03-17T05:41:04.402Z,22.58
2023-03-17T05:45:03.861Z,22.59
2023-03-17T05:49:04.033Z,22.59
2023-03-17T05:53:04.110Z,22.60
2023-03-17T05:57:04.248Z,22.62
2023-03-17T06:01:04.426Z,22.69
2023-03-17T06:05:04.628Z,22.62
2023-03-17T06:09:04.778Z,22.64
2023-03-17T06:13:04.964Z,22.69
2023-03-17T06:17:05.131Z,22.68
2023-03-17T06:21:05.227Z,22.67
2023-03-17T06:25:05.483Z,22.64
2023-03-17T06:29:05.613Z,22.82
2023-03-17T06:33:05.907Z,25.11
2023-03-17T06:37:11.874Z,25.44
2023-03-17T06:41:06.094Z,25.79
2023-03-17T06:45:08.954Z,26.22
2023-03-17T06:49:06.041Z,26.36
2023-03-17T06:53:06.211Z,27.05
2023-03-17T06:57:06.081Z,25.63
2023-03-17T07:01:05.972Z,25.41
2023-03-17T07:05:06.367Z,25.35
2023-03-17T07:09:05.988Z,25.44
2023-03-17T07:13:05.849Z,25.42
2023-03-17T07:17:05.739Z,25.61
2023-03-17T07:21:05.834Z,25.74
2023-03-17T07:29:24.955Z,26.11
2023-03-17T07:33:25.942Z,26.60
2023-03-17T07:37:25.379Z,27.94
2023-03-17T07:41:25.245Z,28.41
2023-03-17T07:45:25.499Z,27.30
2023-03-17T07:49:40.441Z,27.02
2023-03-17T07:53:26.476Z,26.73
2023-03-17T07:57:25.542Z,26.54
2023-03-17T08:01:25.519Z,26.57
2023-03-17T08:05:25.874Z,26.58
2023-03-17T08:09:25.818Z,26.46
2023-03-17T08:13:26.207Z,26.63
2023-03-17T08:17:26.092Z,26.49
2023-03-17T08:21:26.204Z,26.39
2023-03-17T08:25:26.296Z,26.44
2023-03-17T08:29:26.432Z,26.34
2023-03-17T08:33:26.800Z,25.90
2023-03-17T08:37:26.955Z,27.04
2023-03-17T08:41:27.080Z,27.59
2023-03-17T08:45:27.390Z,27.17
2023-03-17T08:49:27.649Z,26.93
2023-03-17T08:53:27.844Z,27.26
2023-03-17T08:57:27.816Z,27.42
2023-03-17T09:01:28.172Z,27.35
2023-03-17T09:05:28.560Z,27.73
2023-03-17T09:09:29.127Z,27.93
2023-03-17T09:13:28.408Z,27.73
2023-03-17T09:17:28.655Z,27.30
2023-03-17T09:21:28.825Z,27.78
2023-03-17T09:25:28.901Z,29.07
2023-03-17T09:29:29.763Z,29.84
2023-03-17T09:33:29.148Z,28.54
2023-03-17T09:37:29.212Z,28.07
2023-03-17T09:41:29.227Z,28.96
2023-03-17T09:45:30.417Z,29.13
2023-03-17T09:49:29.775Z,28.38
2023-03-17T09:53:29.636Z,27.81
2023-03-17T09:57:29.704Z,27.91
2023-03-17T10:01:29.853Z,28.06
2023-03-17T10:05:30.304Z,28.17
2023-03-17T10:09:29.922Z,28.18
2023-03-17T10:13:30.134Z,28.20
2023-03-17T10:17:30.005Z,28.06
2023-03-17T10:21:30.137Z,28.16
2023-03-17T10:25:30.732Z,28.10
2023-03-17T10:29:30.352Z,28.34
2023-03-17T10:33:30.384Z,29.20
2023-03-17T10:37:30.779Z,28.02
2023-03-17T10:41:30.467Z,27.01
2023-03-17T10:45:30.514Z,27.34
2023-03-17T10:49:30.506Z,27.57
2023-03-17T10:53:30.781Z,27.56
2023-03-17T10:57:31.947Z,27.39
2023-03-17T11:01:30.819Z,27.73
2023-03-17T11:05:30.805Z,27.58
2023-03-17T11:09:30.877Z,27.88
2023-03-17T11:13:30.969Z,28.09
2023-03-17T11:17:31.403Z,28.08
2023-03-17T11:21:32.131Z,28.12
2023-03-17T11:25:33.222Z,28.55
2023-03-17T11:29:31.364Z,31.11
2023-03-17T11:33:31.371Z,30.86
2023-03-17T11:37:31.391Z,29.38
2023-03-17T11:41:31.375Z,29.12
2023-03-17T11:45:31.290Z,29.39
2023-03-17T11:49:31.311Z,29.59
2023-03-17T11:53:31.378Z,29.65
2023-03-17T11:57:32.188Z,29.41
2023-03-17T12:01:31.534Z,28.93
2023-03-17T12:05:31.512Z,28.47
2023-03-17T12:09:31.463Z,28.95
2023-03-17T12:13:31.405Z,28.90
2023-03-17T12:17:31.492Z,28.97
2023-03-17T12:21:31.440Z,29.89
2023-03-17T12:25:33.773Z,30.93
2023-03-17T12:29:31.431Z,30.85
2023-03-17T12:33:31.430Z,30.38
2023-03-17T12:37:31.418Z,30.50
2023-03-17T12:41:31.500Z,30.62
2023-03-17T12:45:31.672Z,30.42
2023-03-17T12:49:31.502Z,30.05
2023-03-17T12:53:31.602Z,29.71
2023-03-17T12:57:31.702Z,29.36
2023-03-17T13:01:31.752Z,28.77
2023-03-17T13:05:31.946Z,28.48
2023-03-17T13:09:31.990Z,27.65
2023-03-17T13:13:31.701Z,27.80
2023-03-17T13:17:31.766Z,27.69
2023-03-17T13:21:35.282Z,28.12
2023-03-17T13:25:32.205Z,28.15
2023-03-17T13:29:31.809Z,27.84
2023-03-17T13:33:31.790Z,27.46
2023-03-17T13:37:31.685Z,27.96
2023-03-17T13:41:31.648Z,28.25
2023-03-17T13:45:32.011Z,27.74
2023-03-17T13:49:31.677Z,28.09
2023-03-17T13:53:31.652Z,27.54
2023-03-17T13:57:31.507Z,27.19
2023-03-17T14:01:31.558Z,27.60
2023-03-17T14:05:31.629Z,27.69
2023-03-17T14:09:31.355Z,28.01
2023-03-17T14:13:31.393Z,27.32
2023-03-17T14:17:31.308Z,27.32
2023-03-17T14:21:31.435Z,27.44
2023-03-17T14:25:31.599Z,27.09
2023-03-17T14:29:31.489Z,26.47
2023-03-17T14:33:31.671Z,26.16
2023-03-17T14:37:31.751Z,26.10
2023-03-17T14:41:33.517Z,26.01
2023-03-17T14:45:31.972Z,25.97
2023-03-17T14:49:31.818Z,26.60
2023-03-17T14:53:31.872Z,27.04
2023-03-17T14:57:32.345Z,26.98
2023-03-17T15:01:32.063Z,26.54
2023-03-17T15:05:32.382Z,25.94
2023-03-17T15:09:32.061Z,25.65
2023-03-17T15:13:32.134Z,25.27
2023-03-17T15:17:32.118Z,24.97
2023-03-17T15:21:32.151Z,25.25
2023-03-17T15:25:32.160Z,25.41
2023-03-17T15:29:32.229Z,25.52
2023-03-17T15:33:32.274Z,25.54
2023-03-17T15:37:32.277Z,25.68
2023-03-17T15:41:32.310Z,25.83
2023-03-17T15:45:32.433Z,25.89
2023-03-17T15:49:32.497Z,25.98
2023-03-17T15:53:32.470Z,26.10
2023-03-17T15:57:32.525Z,26.16
2023-03-17T16:01:32.657Z,26.27
2023-03-17T16:05:32.505Z,26.36
2023-03-17T16:09:32.452Z,26.55
2023-03-17T16:13:32.489Z,26.76
2023-03-17T16:17:32.532Z,26.99
2023-03-17T16:21:32.531Z,27.00
2023-03-17T16:25:32.556Z,26.84
2023-03-17T16:29:32.532Z,26.75
2023-03-17T16:33:32.558Z,26.69
2023-03-17T16:37:32.537Z,26.71
2023-03-17T16:41:32.517Z,26.74
2023-03-17T16:45:32.524Z,26.74
2023-03-17T16:49:32.587Z,26.75
2023-03-17T16:53:32.600Z,26.79
2023-03-17T16:57:32.658Z,26.83
2023-03-17T17:01:32.704Z,26.82
2023-03-17T17:05:32.663Z,26.87
2023-03-17T17:09:32.675Z,26.91
2023-03-17T17:13:32.641Z,26.94
2023-03-17T17:17:32.660Z,26.96
2023-03-17T17:21:32.762Z,26.97
2023-03-17T17:25:33.056Z,26.98
2023-03-17T17:29:32.712Z,27.04
2023-03-17T17:33:32.774Z,27.03
2023-03-17T17:37:32.728Z,27.03
2023-03-17T17:41:32.799Z,27.03
2023-03-17T17:45:32.780Z,27.02
2023-03-17T17:49:32.746Z,27.05
2023-03-17T17:53:32.741Z,27.07
2023-03-17T17:57:32.733Z,27.06
2023-03-17T18:01:32.777Z,27.06
2023-03-17T18:05:32.768Z,27.05
2023-03-17T18:09:32.744Z,27.05
2023-03-17T18:13:32.735Z,27.10
2023-03-17T18:17:32.761Z,27.10
2023-03-17T18:21:32.781Z,27.09
2023-03-17T18:25:32.724Z,27.08
2023-03-17T18:29:32.674Z,27.09
2023-03-17T18:33:32.768Z,27.14
2023-03-17T18:37:32.762Z,27.17
2023-03-17T18:41:32.740Z,27.15
2023-03-17T18:45:32.813Z,27.16
2023-03-17T18:49:32.742Z,27.14
2023-03-17T18:53:32.867Z,27.13
2023-03-17T18:57:32.850Z,27.13
2023-03-17T19:01:32.804Z,27.09
2023-03-17T19:05:32.853Z,27.11
2023-03-17T19:09:32.921Z,27.10
2023-03-17T19:13:32.899Z,27.11
2023-03-17T19:17:33.025Z,27.13
2023-03-17T19:21:32.939Z,27.11
2023-03-17T19:25:33.010Z,27.11
2023-03-17T19:29:33.325Z,27.10
2023-03-17T19:33:33.286Z,27.05
2023-03-17T19:37:33.041Z,27.08
2023-03-17T19:41:33.117Z,27.06
2023-03-17T19:45:33.314Z,27.08
2023-03-17T19:49:33.104Z,27.07
2023-03-17T19:53:33.075Z,27.06
2023-03-17T19:57:33.157Z,27.07
2023-03-17T20:01:33.192Z,27.08
2023-03-17T20:05:33.203Z,27.08
2023-03-17T20:09:33.236Z,27.10
2023-03-17T20:13:33.229Z,27.10
2023-03-17T20:17:33.270Z,27.11
2023-03-17T20:21:33.367Z,27.14
2023-03-17T20:25:33.835Z,27.16
2023-03-17T20:29:33.413Z,27.16
2023-03-17T20:33:33.619Z,27.16
2023-03-17T20:37:33.463Z,27.18
2023-03-17T20:41:33.606Z,27.17
2023-03-17T20:45:33.602Z,27.16
2023-03-17T20:49:33.680Z,27.19
2023-03-17T20:53:33.685Z,27.18
2023-03-17T20:57:33.785Z,27.17
2023-03-17T21:01:33.832Z,27.16
2023-03-17T21:05:33.799Z,27.18
2023-03-17T21:09:33.769Z,27.17
2023-03-17T21:13:33.848Z,27.18
2023-03-17T21:17:33.811Z,27.17
2023-03-17T21:21:33.899Z,27.19
2023-03-17T21:25:33.869Z,27.18
2023-03-17T21:29:33.920Z,27.17
2023-03-17T21:33:33.958Z,27.17
2023-03-17T21:37:34.030Z,27.18
2023-03-17T21:41:34.146Z,27.18
2023-03-17T21:45:34.240Z,27.17
2023-03-17T21:49:34.259Z,27.15
2023-03-17T21:53:34.350Z,27.18
2023-03-17T21:57:34.420Z,27.16
2023-03-17T22:01:34.549Z,27.16
2023-03-17T22:05:34.504Z,27.17
2023-03-17T22:09:34.591Z,27.19
2023-03-17T22:13:34.657Z,27.21
2023-03-17T22:17:34.780Z,27.22
2023-03-17T22:21:34.808Z,27.21
2023-03-17T22:25:34.881Z,27.26
2023-03-17T22:29:35.026Z,27.22
2023-03-17T22:33:35.093Z,27.22
2023-03-17T22:37:35.132Z,27.23
2023-03-17T22:41:35.207Z,27.28
2023-03-17T22:45:35.372Z,27.29
2023-03-17T22:49:35.335Z,27.31
2023-03-17T22:53:35.467Z,27.30
2023-03-17T22:57:35.492Z,27.31
2023-03-17T23:01:35.681Z,27.30
2023-03-17T23:05:35.691Z,27.31
2023-03-17T23:09:35.760Z,27.27
2023-03-17T23:13:35.898Z,27.29
2023-03-17T23:17:35.945Z,27.32
2023-03-17T23:21:35.991Z,27.31
2023-03-17T23:25:36.101Z,27.34
2023-03-17T23:29:36.186Z,27.35
2023-03-17T23:33:36.325Z,27.34
2023-03-17T23:37:36.421Z,27.35
2023-03-17T23:41:36.462Z,27.33
2023-03-17T23:45:36.530Z,27.34
2023-03-17T23:49:36.617Z,27.34
2023-03-17T23:53:36.685Z,27.37
2023-03-17T23:57:36.840Z,27.35
